Aeroboteco Virtual Airlines! Uma nuvem a frente.



 INFORMAÇÕES METEOROLÓGICAS
METAR FOR KLGC
ADDS - METARS form results

(0458 UTC 15 November 2019)
Data provider http://aviationweather.gov/metar/data/
 
METAR text: KLGC 150435Z AUTO 00000KT 5SM RA OVC006 05/05 A3022 RMK AO2 T00500045
Conditions at: KLGC (LA GRANGE , GA, US) observed 0435 UTC 15 November 2019
Temperature: 5.0°C (41°F)
Dewpoint: 4.5°C (40°F) [RH = 97%]
Pressure (altimeter): 30.22 inches Hg (1023.5 mb)
Winds: calm
Visibility: 5 miles ( 8 km)
Ceiling: 600 feet AGL
Clouds: overcast cloud deck at 600 feet AGL
Weather: RA  (moderate rain)

METAR text: KLGC 150415Z AUTO 03003KT 5SM RA OVC006 05/05 A3023 RMK AO2 T00500045
Conditions at: KLGC (LA GRANGE , GA, US) observed 0415 UTC 15 November 2019
Temperature: 5.0°C (41°F)
Dewpoint: 4.5°C (40°F) [RH = 97%]
Pressure (altimeter): 30.23 inches Hg (1023.8 mb)
Winds: from the NNE (30 degrees) at 3 MPH (3 knots; 1.5 m/s)
Visibility: 5 miles ( 8 km)
Ceiling: 600 feet AGL
Clouds: overcast cloud deck at 600 feet AGL
Weather: RA  (moderate rain)

 MAPA DO AEROPORTO

 INFORMAÇÕES DA PISTA
Pista 03 Tamanho da pista 5000 ft Largura da pista 100 ft
Elevação da pista 678 ft Ranhura da pista 0 ft Proa da pista 24
Pista 21 Tamanho da pista 5000 ft Largura da pista 100 ft
Elevação da pista 684 ft Ranhura da pista 0 ft Proa da pista 204
Pista 13 Tamanho da pista 5600 ft Largura da pista 150 ft
Elevação da pista 680 ft Ranhura da pista 0 ft Proa da pista 127
Pista 31 Tamanho da pista 5600 ft Largura da pista 150 ft
Elevação da pista 675 ft Ranhura da pista 0 ft Proa da pista 307

 FREQUÊNCIAS DO AEROPORTO
Tipo A/D Nome ATLANTA AP Frequência 125.5 MHZ
Tipo AWOS Nome AWOS 3 Frequência 126.325 MHZ
Tipo CLD Nome CLNC DEL Frequência 119.25 MHZ
Tipo RDO Nome MACON RDO Frequência 115.6 MHZ
Tipo UNIC Nome CTAF/UNICO Frequência 122.975 MHZ

 AUXÍLIOS DE NAVEGAÇÃO PRÓXIMOS AO AEROPORTO